Terminal Aerodrome Forecast
Issued by NWS

Home | Current Version | Previous Version | Text Only | Print | Product List | Glossary On
Versions: 1 2 3 4 5 6 7 8 9 10 11 12 13 14 15 16 17 18 19 20 21 22 23 24
646
FTUS43 KILX 291120
TAFCMI
TAF
KCMI 291120Z 2912/3012 06015G19KT 5SM SHRA BR VCTS OVC010CB
     FM291800 09013G21KT 3SM SHRA BR VCTS BKN007 OVC015CB
     FM300200 06011KT 3SM +SHRA VCTS OVC010CB WS020/16030KT
     FM300600 09009KT 4SM SHRA OVC008
     FM301000 12009KT 6SM SHRA OVC008
     FM301100 13009KT P6SM SHRA OVC010=

USA.gov is the U.S. government's official web portal to all federal, state and local government web resources and services.